sensor_id;sensor_type;location;lat;lon;timestamp;pressure;altitude;pressure_sealevel;temperature;humidity
829;BME280;396;52.558;13.188;2023-07-31T00:01:23;100590.06;;;15.11;100.00
829;BME280;396;52.558;13.188;2023-07-31T00:03:51;100591.19;;;15.10;100.00
829;BME280;396;52.558;13.188;2023-07-31T00:06:17;100584.94;;;15.10;100.00
829;BME280;396;52.558;13.188;2023-07-31T00:08:44;100591.19;;;15.10;100.00
829;BME280;396;52.558;13.188;2023-07-31T00:11:11;100594.19;;;15.18;100.00
829;BME280;396;52.558;13.188;2023-07-31T00:13:37;100593.19;;;15.22;100.00
829;BME280;396;52.558;13.188;2023-07-31T00:16:04;100585.28;;;15.29;100.00
829;BME280;396;52.558;13.188;2023-07-31T00:18:30;100578.69;;;15.30;100.00
829;BME280;396;52.558;13.188;2023-07-31T00:20:58;100586.41;;;15.28;100.00
829;BME280;396;52.558;13.188;2023-07-31T00:23:25;100581.59;;;15.25;100.00
829;BME280;396;52.558;13.188;2023-07-31T00:25:52;100579.22;;;15.24;100.00
829;BME280;396;52.558;13.188;2023-07-31T00:28:18;100573.28;;;15.22;100.00
829;BME280;396;52.558;13.188;2023-07-31T00:30:45;100572.63;;;15.25;100.00
829;BME280;396;52.558;13.188;2023-07-31T00:33:11;100575.81;;;15.27;100.00
829;BME280;396;52.558;13.188;2023-07-31T00:35:38;100574.00;;;15.31;100.00
829;BME280;396;52.558;13.188;2023-07-31T00:38:06;100566.31;;;15.33;100.00
829;BME280;396;52.558;13.188;2023-07-31T00:40:34;100575.75;;;15.35;100.00
829;BME280;396;52.558;13.188;2023-07-31T00:43:02;100565.31;;;15.37;100.00
829;BME280;396;52.558;13.188;2023-07-31T00:45:29;100561.91;;;15.41;100.00
829;BME280;396;52.558;13.188;2023-07-31T00:47:56;100556.47;;;15.41;100.00
829;BME280;396;52.558;13.188;2023-07-31T00:50:24;100561.03;;;15.49;100.00
829;BME280;396;52.558;13.188;2023-07-31T00:52:51;100558.44;;;15.52;100.00
829;BME280;396;52.558;13.188;2023-07-31T00:55:19;100561.16;;;15.52;100.00
829;BME280;396;52.558;13.188;2023-07-31T00:57:48;100563.22;;;15.55;100.00
829;BME280;396;52.558;13.188;2023-07-31T01:00:14;100556.75;;;15.60;100.00
829;BME280;396;52.558;13.188;2023-07-31T01:02:41;100563.19;;;15.64;100.00
829;BME280;396;52.558;13.188;2023-07-31T01:05:08;100555.22;;;15.71;100.00
829;BME280;396;52.558;13.188;2023-07-31T01:07:42;100557.06;;;15.79;100.00
829;BME280;396;52.558;13.188;2023-07-31T01:10:14;100553.19;;;15.80;100.00
829;BME280;396;52.558;13.188;2023-07-31T01:12:45;100554.03;;;15.81;100.00
829;BME280;396;52.558;13.188;2023-07-31T01:15:12;100547.75;;;15.80;100.00
829;BME280;396;52.558;13.188;2023-07-31T01:17:41;100557.56;;;15.81;100.00
829;BME280;396;52.558;13.188;2023-07-31T01:20:11;100551.63;;;15.79;100.00
829;BME280;396;52.558;13.188;2023-07-31T01:26:01;100559.06;;;15.91;100.00
829;BME280;396;52.558;13.188;2023-07-31T01:28:35;100548.91;;;15.92;100.00
829;BME280;396;52.558;13.188;2023-07-31T01:31:07;100557.13;;;15.92;100.00
829;BME280;396;52.558;13.188;2023-07-31T01:33:36;100559.97;;;15.95;100.00
829;BME280;396;52.558;13.188;2023-07-31T01:36:04;100556.91;;;15.97;100.00
829;BME280;396;52.558;13.188;2023-07-31T01:38:31;100549.50;;;15.97;100.00
829;BME280;396;52.558;13.188;2023-07-31T01:40:58;100542.78;;;15.95;100.00
829;BME280;396;52.558;13.188;2023-07-31T01:43:25;100545.84;;;15.93;100.00
829;BME280;396;52.558;13.188;2023-07-31T01:45:52;100526.72;;;15.93;100.00
829;BME280;396;52.558;13.188;2023-07-31T01:48:18;100532.88;;;15.90;100.00
829;BME280;396;52.558;13.188;2023-07-31T01:50:45;100536.16;;;15.83;100.00
829;BME280;396;52.558;13.188;2023-07-31T01:53:12;100539.22;;;15.82;100.00
829;BME280;396;52.558;13.188;2023-07-31T01:55:38;100535.47;;;15.86;100.00
829;BME280;396;52.558;13.188;2023-07-31T01:58:06;100526.50;;;15.86;100.00
829;BME280;396;52.558;13.188;2023-07-31T02:00:33;100528.66;;;15.93;100.00
829;BME280;396;52.558;13.188;2023-07-31T02:02:59;100526.41;;;15.95;100.00
829;BME280;396;52.558;13.188;2023-07-31T02:05:26;100522.53;;;15.96;100.00
829;BME280;396;52.558;13.188;2023-07-31T02:07:53;100524.91;;;15.97;100.00
829;BME280;396;52.558;13.188;2023-07-31T02:10:19;100513.31;;;16.00;100.00
829;BME280;396;52.558;13.188;2023-07-31T02:12:46;100510.69;;;16.04;100.00
829;BME280;396;52.558;13.188;2023-07-31T02:15:14;100502.94;;;16.06;100.00
829;BME280;396;52.558;13.188;2023-07-31T02:17:41;100502.72;;;16.11;100.00
829;BME280;396;52.558;13.188;2023-07-31T02:20:09;100501.69;;;16.15;100.00
829;BME280;396;52.558;13.188;2023-07-31T02:22:35;100492.25;;;16.13;100.00
829;BME280;396;52.558;13.188;2023-07-31T02:25:02;100505.25;;;16.16;100.00
829;BME280;396;52.558;13.188;2023-07-31T02:27:29;100499.88;;;16.20;100.00
829;BME280;396;52.558;13.188;2023-07-31T02:29:55;100501.50;;;16.21;100.00
829;BME280;396;52.558;13.188;2023-07-31T02:32:26;100496.13;;;16.24;100.00
829;BME280;396;52.558;13.188;2023-07-31T02:34:52;100498.06;;;16.24;100.00
829;BME280;396;52.558;13.188;2023-07-31T02:37:19;100496.47;;;16.23;100.00
829;BME280;396;52.558;13.188;2023-07-31T02:39:45;100495.34;;;16.24;100.00
829;BME280;396;52.558;13.188;2023-07-31T02:42:12;100496.13;;;16.24;100.00
829;BME280;396;52.558;13.188;2023-07-31T02:44:39;100488.63;;;16.21;100.00
829;BME280;396;52.558;13.188;2023-07-31T02:47:06;100481.66;;;16.24;100.00
829;BME280;396;52.558;13.188;2023-07-31T02:49:35;100489.06;;;16.23;100.00
829;BME280;396;52.558;13.188;2023-07-31T02:52:02;100487.25;;;16.27;100.00
829;BME280;396;52.558;13.188;2023-07-31T02:54:28;100484.53;;;16.27;100.00
829;BME280;396;52.558;13.188;2023-07-31T02:56:55;100489.19;;;16.27;100.00
829;BME280;396;52.558;13.188;2023-07-31T02:59:21;100486.47;;;16.27;100.00
829;BME280;396;52.558;13.188;2023-07-31T03:01:48;100478.25;;;16.27;100.00
829;BME280;396;52.558;13.188;2023-07-31T03:04:14;100480.63;;;16.28;100.00
829;BME280;396;52.558;13.188;2023-07-31T03:06:42;100484.06;;;16.25;100.00
829;BME280;396;52.558;13.188;2023-07-31T03:09:09;100487.25;;;16.27;100.00
829;BME280;396;52.558;13.188;2023-07-31T03:11:35;100485.31;;;16.28;100.00
829;BME280;396;52.558;13.188;2023-07-31T03:14:02;100469.94;;;16.23;100.00
829;BME280;396;52.558;13.188;2023-07-31T03:16:29;100475.75;;;16.22;100.00
829;BME280;396;52.558;13.188;2023-07-31T03:18:55;100477.34;;;16.10;100.00
829;BME280;396;52.558;13.188;2023-07-31T03:21:22;100472.56;;;16.07;100.00
829;BME280;396;52.558;13.188;2023-07-31T03:23:51;100463.22;;;16.08;100.00
829;BME280;396;52.558;13.188;2023-07-31T03:26:17;100454.25;;;16.08;100.00
829;BME280;396;52.558;13.188;2023-07-31T03:28:44;100468.81;;;16.12;100.00
829;BME280;396;52.558;13.188;2023-07-31T03:31:11;100451.50;;;16.08;100.00
829;BME280;396;52.558;13.188;2023-07-31T03:33:38;100458.22;;;16.10;100.00
829;BME280;396;52.558;13.188;2023-07-31T03:36:04;100448.78;;;16.08;100.00
829;BME280;396;52.558;13.188;2023-07-31T03:38:33;100453.75;;;16.06;100.00
829;BME280;396;52.558;13.188;2023-07-31T03:41:01;100448.53;;;16.01;100.00
829;BME280;396;52.558;13.188;2023-07-31T03:43:28;100444.88;;;15.97;100.00
829;BME280;396;52.558;13.188;2023-07-31T03:45:54;100438.97;;;15.95;100.00
829;BME280;396;52.558;13.188;2023-07-31T03:48:21;100443.66;;;15.94;100.00
829;BME280;396;52.558;13.188;2023-07-31T03:50:47;100442.81;;;15.94;100.00
829;BME280;396;52.558;13.188;2023-07-31T03:53:14;100441.84;;;15.98;100.00
829;BME280;396;52.558;13.188;2023-07-31T03:55:41;100446.94;;;16.00;100.00
829;BME280;396;52.558;13.188;2023-07-31T03:58:09;100436.56;;;15.93;100.00
829;BME280;396;52.558;13.188;2023-07-31T04:00:35;100438.50;;;15.93;100.00
829;BME280;396;52.558;13.188;2023-07-31T04:03:02;100440.56;;;15.96;100.00
829;BME280;396;52.558;13.188;2023-07-31T04:05:30;100438.50;;;15.93;100.00
829;BME280;396;52.558;13.188;2023-07-31T04:07:56;100436.56;;;15.93;100.00
829;BME280;396;52.558;13.188;2023-07-31T04:10:23;100434.63;;;15.94;100.00
829;BME280;396;52.558;13.188;2023-07-31T04:12:50;100425.75;;;15.97;100.00
829;BME280;396;52.558;13.188;2023-07-31T04:15:18;100423.50;;;15.99;100.00
829;BME280;396;52.558;13.188;2023-07-31T04:17:44;100423.38;;;15.95;100.00
829;BME280;396;52.558;13.188;2023-07-31T04:20:11;100421.09;;;15.97;100.00
829;BME280;396;52.558;13.188;2023-07-31T04:22:38;100422.72;;;15.98;100.00
829;BME280;396;52.558;13.188;2023-07-31T04:25:05;100421.88;;;15.98;100.00
829;BME280;396;52.558;13.188;2023-07-31T04:27:32;100424.19;;;15.96;100.00
829;BME280;396;52.558;13.188;2023-07-31T04:29:58;100429.75;;;15.99;100.00
829;BME280;396;52.558;13.188;2023-07-31T04:32:26;100418.47;;;16.01;100.00
829;BME280;396;52.558;13.188;2023-07-31T04:34:54;100417.69;;;16.00;100.00
829;BME280;396;52.558;13.188;2023-07-31T04:37:20;100413.38;;;15.99;100.00
829;BME280;396;52.558;13.188;2023-07-31T04:39:47;100413.00;;;16.01;100.00
829;BME280;396;52.558;13.188;2023-07-31T04:42:14;100410.75;;;16.03;100.00
829;BME280;396;52.558;13.188;2023-07-31T04:44:40;100413.94;;;16.05;100.00
829;BME280;396;52.558;13.188;2023-07-31T04:47:07;100406.53;;;16.05;100.00
829;BME280;396;52.558;13.188;2023-07-31T04:49:35;100411.31;;;16.08;100.00
829;BME280;396;52.558;13.188;2023-07-31T04:52:02;100412.09;;;16.09;100.00
829;BME280;396;52.558;13.188;2023-07-31T04:54:29;100421.88;;;16.10;100.00
829;BME280;396;52.558;13.188;2023-07-31T04:56:55;100412.09;;;16.09;100.00
829;BME280;396;52.558;13.188;2023-07-31T04:59:22;100414.16;;;16.12;100.00
829;BME280;396;52.558;13.188;2023-07-31T05:01:49;100407.66;;;16.17;100.00
829;BME280;396;52.558;13.188;2023-07-31T05:04:15;100416.78;;;16.21;100.00
829;BME280;396;52.558;13.188;2023-07-31T05:06:43;100410.97;;;16.22;100.00
829;BME280;396;52.558;13.188;2023-07-31T05:09:10;100409.56;;;16.28;100.00
829;BME280;396;52.558;13.188;2023-07-31T05:11:37;100417.53;;;16.33;100.00
829;BME280;396;52.558;13.188;2023-07-31T05:14:05;100407.50;;;16.37;100.00
829;BME280;396;52.558;13.188;2023-07-31T05:16:32;100404.88;;;16.41;100.00
829;BME280;396;52.558;13.188;2023-07-31T05:18:59;100411.38;;;16.49;100.00
829;BME280;396;52.558;13.188;2023-07-31T05:21:26;100404.06;;;16.53;100.00
829;BME280;396;52.558;13.188;2023-07-31T05:23:54;100406.81;;;16.53;100.00
829;BME280;396;52.558;13.188;2023-07-31T05:26:20;100407.16;;;16.51;100.00
829;BME280;396;52.558;13.188;2023-07-31T05:28:47;100398.59;;;16.53;100.00
829;BME280;396;52.558;13.188;2023-07-31T05:31:14;100402.56;;;16.55;100.00
829;BME280;396;52.558;13.188;2023-07-31T05:33:41;100403.28;;;16.52;100.00
829;BME280;396;52.558;13.188;2023-07-31T05:36:07;100400.88;;;16.51;100.00
829;BME280;396;52.558;13.188;2023-07-31T05:38:34;100397.69;;;16.49;100.00
829;BME280;396;52.558;13.188;2023-07-31T05:41:02;100395.97;;;16.56;100.00
829;BME280;396;52.558;13.188;2023-07-31T05:43:29;100393.31;;;16.60;100.00
829;BME280;396;52.558;13.188;2023-07-31T05:45:55;100392.47;;;16.56;100.00
829;BME280;396;52.558;13.188;2023-07-31T05:48:22;100390.84;;;16.55;100.00
829;BME280;396;52.558;13.188;2023-07-31T05:50:49;100388.56;;;16.57;100.00
829;BME280;396;52.558;13.188;2023-07-31T05:53:15;100387.78;;;16.56;100.00
829;BME280;396;52.558;13.188;2023-07-31T05:55:42;100383.53;;;16.59;100.00
829;BME280;396;52.558;13.188;2023-07-31T05:58:10;100377.63;;;16.57;100.00
829;BME280;396;52.558;13.188;2023-07-31T06:00:37;100386.75;;;16.61;100.00
829;BME280;396;52.558;13.188;2023-07-31T06:03:03;100384.91;;;16.65;100.00
829;BME280;396;52.558;13.188;2023-07-31T06:05:30;100385.81;;;16.69;100.00
829;BME280;396;52.558;13.188;2023-07-31T06:07:57;100387.41;;;16.70;100.00
829;BME280;396;52.558;13.188;2023-07-31T06:10:24;100387.72;;;16.69;100.00
829;BME280;396;52.558;13.188;2023-07-31T06:12:51;100384.66;;;16.70;100.00
829;BME280;396;52.558;13.188;2023-07-31T06:15:19;100386.59;;;16.70;100.00
829;BME280;396;52.558;13.188;2023-07-31T06:17:46;100389.66;;;16.68;100.00
829;BME280;396;52.558;13.188;2023-07-31T06:20:13;100385.69;;;16.65;100.00
829;BME280;396;52.558;13.188;2023-07-31T06:22:39;100385.00;;;16.69;100.00
829;BME280;396;52.558;13.188;2023-07-31T06:25:07;100379.97;;;16.71;100.00
829;BME280;396;52.558;13.188;2023-07-31T06:27:33;100386.25;;;16.71;100.00
829;BME280;396;52.558;13.188;2023-07-31T06:30:00;100383.97;;;16.73;100.00
829;BME280;396;52.558;13.188;2023-07-31T06:32:28;100381.81;;;16.79;100.00
829;BME280;396;52.558;13.188;2023-07-31T06:34:55;100386.25;;;16.83;100.00
829;BME280;396;52.558;13.188;2023-07-31T06:37:21;100375.47;;;16.90;100.00
829;BME280;396;52.558;13.188;2023-07-31T06:39:48;100374.00;;;16.93;100.00
829;BME280;396;52.558;13.188;2023-07-31T06:42:14;100378.69;;;16.93;100.00
829;BME280;396;52.558;13.188;2023-07-31T06:44:41;100370.91;;;16.95;100.00
829;BME280;396;52.558;13.188;2023-07-31T06:47:07;100375.88;;;17.05;100.00
829;BME280;396;52.558;13.188;2023-07-31T06:49:37;100375.00;;;17.17;100.00
829;BME280;396;52.558;13.188;2023-07-31T06:52:04;100378.53;;;17.17;100.00
829;BME280;396;52.558;13.188;2023-07-31T06:54:31;100377.16;;;17.23;100.00
829;BME280;396;52.558;13.188;2023-07-31T06:56:57;100380.00;;;17.27;100.00
829;BME280;396;52.558;13.188;2023-07-31T06:59:24;100385.91;;;17.29;100.00
829;BME280;396;52.558;13.188;2023-07-31T07:01:50;100380.00;;;17.27;100.00
829;BME280;396;52.558;13.188;2023-07-31T07:04:17;100389.44;;;17.29;100.00
829;BME280;396;52.558;13.188;2023-07-31T07:06:45;100382.38;;;17.28;100.00
829;BME280;396;52.558;13.188;2023-07-31T07:09:12;100382.81;;;17.30;100.00
829;BME280;396;52.558;13.188;2023-07-31T07:11:38;100381.41;;;17.36;100.00
829;BME280;396;52.558;13.188;2023-07-31T07:14:05;100385.72;;;17.37;100.00
829;BME280;396;52.558;13.188;2023-07-31T07:16:31;100387.41;;;17.42;100.00
829;BME280;396;52.558;13.188;2023-07-31T07:18:58;100384.59;;;17.38;100.00
829;BME280;396;52.558;13.188;2023-07-31T07:21:25;100383.19;;;17.45;100.00
829;BME280;396;52.558;13.188;2023-07-31T07:23:52;100378.59;;;17.49;100.00
829;BME280;396;52.558;13.188;2023-07-31T07:26:19;100376.09;;;17.44;100.00
829;BME280;396;52.558;13.188;2023-07-31T07:28:46;100383.19;;;17.45;100.00
829;BME280;396;52.558;13.188;2023-07-31T07:31:12;100379.63;;;17.44;100.00
829;BME280;396;52.558;13.188;2023-07-31T07:33:39;100382.31;;;17.40;100.00
829;BME280;396;52.558;13.188;2023-07-31T07:36:06;100374.69;;;17.34;100.00
829;BME280;396;52.558;13.188;2023-07-31T07:38:35;100377.69;;;17.29;100.00
829;BME280;396;52.558;13.188;2023-07-31T07:41:03;100381.31;;;17.33;100.00
829;BME280;396;52.558;13.188;2023-07-31T07:43:29;100372.03;;;17.37;100.00
829;BME280;396;52.558;13.188;2023-07-31T07:45:56;100371.88;;;17.46;100.00
829;BME280;396;52.558;13.188;2023-07-31T07:48:22;100367.34;;;17.38;100.00
829;BME280;396;52.558;13.188;2023-07-31T07:50:51;100372.31;;;17.32;100.00
829;BME280;396;52.558;13.188;2023-07-31T07:53:17;100367.63;;;17.33;100.00
829;BME280;396;52.558;13.188;2023-07-31T07:55:44;100365.25;;;17.31;100.00
829;BME280;396;52.558;13.188;2023-07-31T07:58:12;100358.88;;;17.27;100.00
829;BME280;396;52.558;13.188;2023-07-31T08:00:39;100368.69;;;17.28;100.00
829;BME280;396;52.558;13.188;2023-07-31T08:03:05;100360.47;;;17.28;100.00
829;BME280;396;52.558;13.188;2023-07-31T08:05:32;100350.22;;;17.25;100.00
829;BME280;396;52.558;13.188;2023-07-31T08:07:59;100347.03;;;17.23;100.00
829;BME280;396;52.558;13.188;2023-07-31T08:10:26;100355.25;;;17.23;100.00
829;BME280;396;52.558;13.188;2023-07-31T08:12:52;100360.81;;;17.27;100.00
829;BME280;396;52.558;13.188;2023-07-31T08:15:20;100358.25;;;17.34;100.00
829;BME280;396;52.558;13.188;2023-07-31T08:17:47;100359.06;;;17.34;100.00
829;BME280;396;52.558;13.188;2023-07-31T08:20:13;100355.72;;;17.41;100.00
829;BME280;396;52.558;13.188;2023-07-31T08:22:40;100351.44;;;17.44;100.00
829;BME280;396;52.558;13.188;2023-07-31T08:25:08;100347.41;;;17.53;100.00
829;BME280;396;52.558;13.188;2023-07-31T08:27:34;100354.22;;;17.59;100.00
829;BME280;396;52.558;13.188;2023-07-31T08:30:01;100344.31;;;17.55;100.00
829;BME280;396;52.558;13.188;2023-07-31T08:32:29;100349.69;;;17.51;100.00
829;BME280;396;52.558;13.188;2023-07-31T08:34:55;100350.06;;;17.50;100.00
829;BME280;396;52.558;13.188;2023-07-31T08:37:22;100348.22;;;17.54;100.00
829;BME280;396;52.558;13.188;2023-07-31T08:39:49;100352.44;;;17.67;100.00
829;BME280;396;52.558;13.188;2023-07-31T08:42:15;100349.69;;;17.83;100.00
829;BME280;396;52.558;13.188;2023-07-31T08:44:43;100352.78;;;17.97;100.00
829;BME280;396;52.558;13.188;2023-07-31T08:47:10;100353.19;;;18.15;100.00
829;BME280;396;52.558;13.188;2023-07-31T08:49:38;100347.50;;;18.24;100.00
829;BME280;396;52.558;13.188;2023-07-31T08:52:06;100346.88;;;18.30;100.00
829;BME280;396;52.558;13.188;2023-07-31T08:54:33;100345.00;;;18.34;100.00
829;BME280;396;52.558;13.188;2023-07-31T08:57:00;100343.53;;;18.40;100.00
829;BME280;396;52.558;13.188;2023-07-31T08:59:28;100349.81;;;18.41;100.00
829;BME280;396;52.558;13.188;2023-07-31T09:01:55;100340.00;;;18.40;100.00
829;BME280;396;52.558;13.188;2023-07-31T09:04:24;100336.41;;;18.36;100.00
829;BME280;396;52.558;13.188;2023-07-31T09:06:57;100335.81;;;18.27;100.00
829;BME280;396;52.558;13.188;2023-07-31T09:09:26;100351.59;;;18.14;100.00
829;BME280;396;52.558;13.188;2023-07-31T09:11:53;100344.09;;;18.11;100.00
829;BME280;396;52.558;13.188;2023-07-31T09:14:19;100342.78;;;18.05;100.00
829;BME280;396;52.558;13.188;2023-07-31T09:16:54;100340.59;;;17.95;100.00
829;BME280;396;52.558;13.188;2023-07-31T09:19:28;100346.81;;;17.76;100.00
829;BME280;396;52.558;13.188;2023-07-31T09:21:56;100341.13;;;17.69;100.00
829;BME280;396;52.558;13.188;2023-07-31T09:24:27;100341.75;;;17.62;100.00
829;BME280;396;52.558;13.188;2023-07-31T09:26:54;100347.84;;;17.55;100.00
829;BME280;396;52.558;13.188;2023-07-31T09:29:22;100348.03;;;17.47;100.00
829;BME280;396;52.558;13.188;2023-07-31T09:31:50;100339.72;;;17.43;100.00
829;BME280;396;52.558;13.188;2023-07-31T09:34:16;100342.88;;;17.29;100.00
829;BME280;396;52.558;13.188;2023-07-31T09:36:44;100334.25;;;17.27;100.00
829;BME280;396;52.558;13.188;2023-07-31T09:39:13;100331.16;;;17.29;100.00
829;BME280;396;52.558;13.188;2023-07-31T09:41:43;100334.41;;;17.34;100.00
829;BME280;396;52.558;13.188;2023-07-31T09:44:10;100333.72;;;17.37;100.00
829;BME280;396;52.558;13.188;2023-07-31T09:46:37;100335.03;;;17.44;100.00
829;BME280;396;52.558;13.188;2023-07-31T09:49:08;100334.69;;;17.45;100.00
829;BME280;396;52.558;13.188;2023-07-31T09:51:35;100329.31;;;17.49;100.00
829;BME280;396;52.558;13.188;2023-07-31T09:54:15;100325.31;;;17.46;100.00
829;BME280;396;52.558;13.188;2023-07-31T09:56:44;100325.06;;;17.51;100.00
829;BME280;396;52.558;13.188;2023-07-31T09:59:12;100320.81;;;17.54;100.00
829;BME280;396;52.558;13.188;2023-07-31T10:01:40;100323.44;;;17.66;100.00
829;BME280;396;52.558;13.188;2023-07-31T10:04:07;100319.75;;;17.74;100.00
829;BME280;396;52.558;13.188;2023-07-31T10:06:35;100319.41;;;17.76;100.00
829;BME280;396;52.558;13.188;2023-07-31T10:09:05;100331.50;;;17.75;100.00
829;BME280;396;52.558;13.188;2023-07-31T10:11:38;100326.53;;;17.64;100.00
829;BME280;396;52.558;13.188;2023-07-31T10:14:09;100313.31;;;17.67;100.00
829;BME280;396;52.558;13.188;2023-07-31T10:16:38;100314.88;;;17.68;100.00
829;BME280;396;52.558;13.188;2023-07-31T10:19:06;100309.84;;;17.70;100.00
829;BME280;396;52.558;13.188;2023-07-31T10:21:33;100305.59;;;17.72;100.00
829;BME280;396;52.558;13.188;2023-07-31T10:24:02;100308.00;;;17.74;100.00
829;BME280;396;52.558;13.188;2023-07-31T10:26:31;100308.50;;;17.79;100.00
829;BME280;396;52.558;13.188;2023-07-31T10:28:59;100302.78;;;17.84;100.00
829;BME280;396;52.558;13.188;2023-07-31T10:31:26;100301.63;;;17.85;100.00
829;BME280;396;52.558;13.188;2023-07-31T10:33:54;100292.69;;;17.88;100.00
829;BME280;396;52.558;13.188;2023-07-31T10:36:22;100290.97;;;18.00;100.00
829;BME280;396;52.558;13.188;2023-07-31T10:38:49;100290.16;;;18.15;100.00
829;BME280;396;52.558;13.188;2023-07-31T10:41:16;100288.56;;;18.33;100.00
829;BME280;396;52.558;13.188;2023-07-31T10:43:43;100281.56;;;18.55;100.00
829;BME280;396;52.558;13.188;2023-07-31T10:46:14;100276.13;;;18.78;100.00
829;BME280;396;52.558;13.188;2023-07-31T10:48:41;100281.25;;;19.03;100.00
829;BME280;396;52.558;13.188;2023-07-31T10:51:09;100271.56;;;19.32;100.00
829;BME280;396;52.558;13.188;2023-07-31T10:53:36;100266.41;;;19.53;100.00
829;BME280;396;52.558;13.188;2023-07-31T10:56:04;100255.88;;;19.59;100.00
829;BME280;396;52.558;13.188;2023-07-31T10:58:31;100270.63;;;19.70;100.00
829;BME280;396;52.558;13.188;2023-07-31T11:00:59;100265.00;;;19.89;100.00
829;BME280;396;52.558;13.188;2023-07-31T11:03:41;100269.72;;;19.89;100.00
829;BME280;396;52.558;13.188;2023-07-31T11:06:08;100259.13;;;19.91;100.00
829;BME280;396;52.558;13.188;2023-07-31T11:08:36;100271.16;;;19.79;100.00
829;BME280;396;52.558;13.188;2023-07-31T11:11:08;100257.81;;;19.81;100.00
829;BME280;396;52.558;13.188;2023-07-31T11:13:40;100264.16;;;19.85;100.00
829;BME280;396;52.558;13.188;2023-07-31T11:16:07;100265.13;;;20.00;100.00
829;BME280;396;52.558;13.188;2023-07-31T11:18:37;100266.69;;;20.31;99.83
829;BME280;396;52.558;13.188;2023-07-31T11:21:04;100273.63;;;20.48;97.22
829;BME280;396;52.558;13.188;2023-07-31T11:23:31;100269.59;;;20.42;94.87
829;BME280;396;52.558;13.188;2023-07-31T11:25:59;100262.47;;;20.37;96.71
829;BME280;396;52.558;13.188;2023-07-31T11:28:31;100262.72;;;20.25;93.90
829;BME280;396;52.558;13.188;2023-07-31T11:30:59;100264.63;;;20.21;94.06
829;BME280;396;52.558;13.188;2023-07-31T11:33:25;100262.19;;;20.16;96.68
829;BME280;396;52.558;13.188;2023-07-31T11:35:53;100254.50;;;19.99;97.15
829;BME280;396;52.558;13.188;2023-07-31T11:38:25;100270.69;;;20.04;94.09
829;BME280;396;52.558;13.188;2023-07-31T11:40:52;100265.69;;;20.13;92.84
829;BME280;396;52.558;13.188;2023-07-31T11:43:19;100269.94;;;20.07;94.78
829;BME280;396;52.558;13.188;2023-07-31T11:45:47;100266.47;;;20.13;93.96
829;BME280;396;52.558;13.188;2023-07-31T11:48:21;100257.44;;;20.13;90.42
829;BME280;396;52.558;13.188;2023-07-31T11:50:50;100259.72;;;20.07;93.25
829;BME280;396;52.558;13.188;2023-07-31T11:53:20;100258.84;;;20.00;93.16
829;BME280;396;52.558;13.188;2023-07-31T11:55:48;100258.09;;;20.03;92.70
829;BME280;396;52.558;13.188;2023-07-31T11:58:15;100258.47;;;20.01;94.84
829;BME280;396;52.558;13.188;2023-07-31T12:00:43;100246.94;;;19.92;95.76
829;BME280;396;52.558;13.188;2023-07-31T12:03:10;100261.91;;;19.95;94.58
829;BME280;396;52.558;13.188;2023-07-31T12:05:37;100263.47;;;19.65;99.86
829;BME280;396;52.558;13.188;2023-07-31T12:08:09;100254.84;;;19.40;100.00
829;BME280;396;52.558;13.188;2023-07-31T12:10:37;100245.09;;;19.20;100.00
829;BME280;396;52.558;13.188;2023-07-31T12:13:07;100248.06;;;19.11;100.00
829;BME280;396;52.558;13.188;2023-07-31T12:15:40;100244.38;;;19.00;100.00
829;BME280;396;52.558;13.188;2023-07-31T12:18:10;100238.38;;;18.95;100.00
829;BME280;396;52.558;13.188;2023-07-31T12:20:41;100243.44;;;18.93;100.00
829;BME280;396;52.558;13.188;2023-07-31T12:23:13;100239.44;;;18.86;100.00
829;BME280;396;52.558;13.188;2023-07-31T12:25:41;100245.34;;;18.88;100.00
829;BME280;396;52.558;13.188;2023-07-31T12:28:08;100235.22;;;18.93;100.00
829;BME280;396;52.558;13.188;2023-07-31T12:30:38;100243.13;;;18.98;100.00
829;BME280;396;52.558;13.188;2023-07-31T12:33:06;100227.41;;;18.95;100.00
829;BME280;396;52.558;13.188;2023-07-31T12:35:37;100227.53;;;19.02;100.00
829;BME280;396;52.558;13.188;2023-07-31T12:38:04;100233.75;;;18.99;100.00
829;BME280;396;52.558;13.188;2023-07-31T12:40:31;100236.00;;;18.93;100.00
829;BME280;396;52.558;13.188;2023-07-31T12:43:00;100237.47;;;18.87;100.00
829;BME280;396;52.558;13.188;2023-07-31T12:45:27;100233.75;;;18.76;100.00
829;BME280;396;52.558;13.188;2023-07-31T12:47:54;100228.38;;;18.63;100.00
829;BME280;396;52.558;13.188;2023-07-31T12:50:21;100224.00;;;18.59;100.00
829;BME280;396;52.558;13.188;2023-07-31T12:52:48;100216.38;;;18.49;100.00
829;BME280;396;52.558;13.188;2023-07-31T12:55:15;100206.94;;;18.46;100.00
829;BME280;396;52.558;13.188;2023-07-31T12:57:43;100202.25;;;18.47;100.00
829;BME280;396;52.558;13.188;2023-07-31T13:00:13;100228.06;;;18.46;100.00
829;BME280;396;52.558;13.188;2023-07-31T13:02:40;100218.25;;;18.45;100.00
829;BME280;396;52.558;13.188;2023-07-31T13:05:07;100211.66;;;18.49;100.00
829;BME280;396;52.558;13.188;2023-07-31T13:07:34;100204.22;;;18.50;100.00
829;BME280;396;52.558;13.188;2023-07-31T13:10:00;100203.09;;;18.51;100.00
829;BME280;396;52.558;13.188;2023-07-31T13:12:27;100194.69;;;18.63;100.00
829;BME280;396;52.558;13.188;2023-07-31T13:14:53;100192.66;;;18.79;100.00
829;BME280;396;52.558;13.188;2023-07-31T13:17:21;100187.31;;;18.90;100.00